This is the latest recevied weather packets stored in our database for station/object W3BRL. If no packets are shown the sender has not sent any weather packets the latest 10 day(s).
| Time | Temp. | Humidity | Pressure | Rain* | Wind** | Luminosity | Snow |
|---|---|---|---|---|---|---|---|
| 1777638858 | 5.56° C | 96% | 1011.3 hPa | 0 mm | - | 185 W/m² | - |
| 1777638553 | 5° C | 96% | 1011.4 hPa | 0 mm | - | 216 W/m² | - |
| 1777638250 | 5° C | 97% | 1011.2 hPa | 0 mm | - | 151 W/m² | - |
| 1777637946 | 5° C | 97% | 1011.4 hPa | 0 mm | - | 168 W/m² | - |
| 1777637642 | 4.44° C | 97% | 1011.2 hPa | 0 mm | - | 149 W/m² | - |
| 1777637340 | 3.89° C | 97% | 1011.2 hPa | 0 mm | - | 133 W/m² | - |
| 1777637037 | 3.89° C | 98% | 1011.3 hPa | 0 mm | - | 141 W/m² | - |
| 1777636732 | 3.89° C | 98% | 1011.4 hPa | 0 mm | - | 135 W/m² | - |
| 1777636428 | 3.33° C | 98% | 1011.2 hPa | 0 mm | - | 103 W/m² | - |
| 1777636124 | 3.33° C | 98% | 1011.1 hPa | 0 mm | - | 87 W/m² | - |
| 1777635820 | 3.33° C | 98% | 1011.2 hPa | 0 mm | - | 84 W/m² | - |
| 1777635516 | 2.78° C | 98% | 1011.2 hPa | 0 mm | - | 81 W/m² | - |
| 1777635213 | 2.78° C | 98% | 1011.2 hPa | 0 mm | - | 72 W/m² | - |
| 1777634910 | 2.78° C | 98% | 1011.4 hPa | 0 mm | - | 67 W/m² | - |
| 1777634607 | 2.78° C | 98% | 1011.4 hPa | 0 mm | - | 38 W/m² | - |
| 1777634304 | 2.78° C | 98% | 1011.3 hPa | 0 mm | - | 34 W/m² | - |
| 1777634000 | 2.78° C | 98% | 1011.4 hPa | 0 mm | - | 60 W/m² | - |
| 1777633697 | 2.78° C | 98% | 1011.3 hPa | 0 mm | - | 59 W/m² | - |
| 1777633395 | 2.22° C | 98% | 1011.5 hPa | 0 mm | - | 55 W/m² | - |
| 1777633093 | 2.22° C | 98% | 1011.5 hPa | 0 mm | - | 40 W/m² | - |
| 1777632789 | 1.67° C | 98% | 1011.3 hPa | 0 mm | - | 30 W/m² | - |
| 1777632485 | 1.67° C | 98% | 1011.4 hPa | 0 mm | - | 22 W/m² | - |
| 1777632182 | 1.67° C | 98% | 1011.6 hPa | 0 mm | - | 16 W/m² | - |
| 1777631879 | 1.67° C | 98% | 1011.6 hPa | 0 mm | - | 12 W/m² | - |
| 1777631578 | 1.67° C | 97% | 1011.7 hPa | 0 mm | - | 10 W/m² | - |
* Rain latest hour (hover to see other rain measurements)
** Current wind speed in m/s (hover to see current wind gust speed)